sensor_id;sensor_type;location;lat;lon;timestamp;pressure;altitude;pressure_sealevel;temperature;humidity
63115;BME280;49208;50.874;6.466;2023-04-25T06:03:13;100093.09;;;6.18;100.00
63115;BME280;49208;50.874;6.466;2023-04-25T06:05:43;100084.22;;;6.22;100.00
63115;BME280;49208;50.874;6.466;2023-04-25T06:08:09;100088.41;;;6.31;100.00
63115;BME280;49208;50.874;6.466;2023-04-25T06:10:35;100093.44;;;6.41;100.00
63115;BME280;49208;50.874;6.466;2023-04-25T06:13:01;100093.06;;;6.57;100.00
63115;BME280;49208;50.874;6.466;2023-04-25T06:15:26;100093.66;;;6.68;100.00
63115;BME280;49208;50.874;6.466;2023-04-25T06:17:51;100100.50;;;6.77;99.19
63115;BME280;49208;50.874;6.466;2023-04-25T06:20:17;100106.53;;;6.82;97.45
63115;BME280;49208;50.874;6.466;2023-04-25T06:22:43;100101.78;;;6.95;97.56
63115;BME280;49208;50.874;6.466;2023-04-25T06:25:08;100104.28;;;7.01;96.58
63115;BME280;49208;50.874;6.466;2023-04-25T06:27:34;100108.38;;;7.13;95.14
63115;BME280;49208;50.874;6.466;2023-04-25T06:29:59;100103.75;;;7.21;93.24
63115;BME280;49208;50.874;6.466;2023-04-25T06:32:24;100108.53;;;7.39;90.55
63115;BME280;49208;50.874;6.466;2023-04-25T06:34:52;100105.25;;;7.61;90.19
63115;BME280;49208;50.874;6.466;2023-04-25T06:37:17;100112.47;;;7.87;89.10
63115;BME280;49208;50.874;6.466;2023-04-25T06:39:43;100107.16;;;8.15;88.50
63115;BME280;49208;50.874;6.466;2023-04-25T06:42:08;100109.06;;;8.40;87.59
63115;BME280;49208;50.874;6.466;2023-04-25T06:44:33;100113.34;;;8.72;87.03
63115;BME280;49208;50.874;6.466;2023-04-25T06:46:59;100117.53;;;8.79;82.68
63115;BME280;49208;50.874;6.466;2023-04-25T06:49:24;100131.00;;;8.73;80.71
63115;BME280;49208;50.874;6.466;2023-04-25T06:51:49;100122.53;;;8.62;82.47
63115;BME280;49208;50.874;6.466;2023-04-25T06:54:15;100132.91;;;8.40;81.60
63115;BME280;49208;50.874;6.466;2023-04-25T06:56:40;100137.75;;;8.27;83.08
63115;BME280;49208;50.874;6.466;2023-04-25T06:59:06;100132.28;;;8.32;84.55
63115;BME280;49208;50.874;6.466;2023-04-25T07:01:31;100132.06;;;8.39;82.08
63115;BME280;49208;50.874;6.466;2023-04-25T07:03:57;100133.63;;;8.46;82.09
63115;BME280;49208;50.874;6.466;2023-04-25T07:06:23;100137.16;;;8.47;81.44
63115;BME280;49208;50.874;6.466;2023-04-25T07:08:50;100143.72;;;8.34;80.82
63115;BME280;49208;50.874;6.466;2023-04-25T07:11:16;100135.91;;;8.29;81.27
63115;BME280;49208;50.874;6.466;2023-04-25T07:13:41;100145.00;;;8.22;81.02
63115;BME280;49208;50.874;6.466;2023-04-25T07:16:06;100149.38;;;8.23;79.52
63115;BME280;49208;50.874;6.466;2023-04-25T07:18:32;100140.63;;;8.19;80.57
63115;BME280;49208;50.874;6.466;2023-04-25T07:20:57;100144.09;;;8.21;80.06
63115;BME280;49208;50.874;6.466;2023-04-25T07:23:22;100137.59;;;8.32;80.59
63115;BME280;49208;50.874;6.466;2023-04-25T07:25:48;100142.81;;;8.35;78.60
63115;BME280;49208;50.874;6.466;2023-04-25T07:28:13;100144.38;;;8.40;77.18
63115;BME280;49208;50.874;6.466;2023-04-25T07:30:39;100153.69;;;8.82;78.28
63115;BME280;49208;50.874;6.466;2023-04-25T07:33:04;100142.56;;;9.49;71.31
63115;BME280;49208;50.874;6.466;2023-04-25T07:35:29;100139.22;;;10.38;69.48
63115;BME280;49208;50.874;6.466;2023-04-25T07:37:55;100146.25;;;11.26;66.67
63115;BME280;49208;50.874;6.466;2023-04-25T07:40:20;100154.50;;;12.00;65.52
63115;BME280;49208;50.874;6.466;2023-04-25T07:42:46;100150.91;;;12.39;62.02
63115;BME280;49208;50.874;6.466;2023-04-25T07:45:11;100150.22;;;12.53;57.64
63115;BME280;49208;50.874;6.466;2023-04-25T07:47:37;100157.63;;;12.29;58.22
63115;BME280;49208;50.874;6.466;2023-04-25T07:50:03;100158.16;;;11.79;57.16
63115;BME280;49208;50.874;6.466;2023-04-25T07:52:29;100164.09;;;11.24;58.12
63115;BME280;49208;50.874;6.466;2023-04-25T07:54:54;100172.75;;;10.86;59.46
63115;BME280;49208;50.874;6.466;2023-04-25T07:57:20;100169.47;;;10.58;60.91
63115;BME280;49208;50.874;6.466;2023-04-25T07:59:45;100184.44;;;10.38;64.96
63115;BME280;49208;50.874;6.466;2023-04-25T08:02:10;100185.53;;;10.32;66.73
63115;BME280;49208;50.874;6.466;2023-04-25T08:04:36;100186.97;;;10.18;68.34
63115;BME280;49208;50.874;6.466;2023-04-25T08:07:01;100187.88;;;10.17;68.60
63115;BME280;49208;50.874;6.466;2023-04-25T08:09:27;100190.53;;;10.17;67.26
63115;BME280;49208;50.874;6.466;2023-04-25T08:11:52;100198.81;;;10.34;69.03
63115;BME280;49208;50.874;6.466;2023-04-25T08:14:18;100192.75;;;10.52;67.95
63115;BME280;49208;50.874;6.466;2023-04-25T08:16:43;100208.06;;;10.69;68.82
63115;BME280;49208;50.874;6.466;2023-04-25T08:19:09;100210.91;;;10.87;65.57
63115;BME280;49208;50.874;6.466;2023-04-25T08:21:36;100208.66;;;10.76;62.66
63115;BME280;49208;50.874;6.466;2023-04-25T08:24:01;100221.56;;;10.65;62.67
63115;BME280;49208;50.874;6.466;2023-04-25T08:26:27;100220.81;;;10.61;64.50
63115;BME280;49208;50.874;6.466;2023-04-25T08:28:53;100222.31;;;10.45;64.00
63115;BME280;49208;50.874;6.466;2023-04-25T08:31:18;100225.03;;;10.43;62.10
63115;BME280;49208;50.874;6.466;2023-04-25T08:33:44;100224.94;;;10.46;63.06
63115;BME280;49208;50.874;6.466;2023-04-25T08:36:10;100231.13;;;10.47;64.09
63115;BME280;49208;50.874;6.466;2023-04-25T08:38:35;100236.06;;;10.56;65.70
63115;BME280;49208;50.874;6.466;2023-04-25T08:41:02;100240.44;;;10.81;62.60
63115;BME280;49208;50.874;6.466;2023-04-25T08:43:29;100239.00;;;10.72;60.76
63115;BME280;49208;50.874;6.466;2023-04-25T08:45:59;100236.81;;;10.60;58.50
63115;BME280;49208;50.874;6.466;2023-04-25T08:48:27;100252.94;;;10.57;60.66
63115;BME280;49208;50.874;6.466;2023-04-25T08:50:55;100248.34;;;10.60;59.86
63115;BME280;49208;50.874;6.466;2023-04-25T08:53:28;100247.00;;;10.72;61.20
63115;BME280;49208;50.874;6.466;2023-04-25T08:55:56;100257.06;;;10.87;61.77
63115;BME280;49208;50.874;6.466;2023-04-25T08:58:22;100257.47;;;10.99;57.72
63115;BME280;49208;50.874;6.466;2023-04-25T09:00:48;100258.16;;;10.82;54.83
63115;BME280;49208;50.874;6.466;2023-04-25T09:03:14;100261.72;;;10.81;56.08
63115;BME280;49208;50.874;6.466;2023-04-25T09:05:40;100266.38;;;10.98;58.59
63115;BME280;49208;50.874;6.466;2023-04-25T09:08:06;100266.63;;;11.13;58.32
63115;BME280;49208;50.874;6.466;2023-04-25T09:10:32;100277.09;;;11.40;57.04
63115;BME280;49208;50.874;6.466;2023-04-25T09:13:06;100266.19;;;11.67;57.78
63115;BME280;49208;50.874;6.466;2023-04-25T09:15:32;100273.22;;;11.90;57.96
63115;BME280;49208;50.874;6.466;2023-04-25T09:17:59;100271.66;;;12.25;56.40
63115;BME280;49208;50.874;6.466;2023-04-25T09:20:25;100280.06;;;12.56;54.60
63115;BME280;49208;50.874;6.466;2023-04-25T09:23:10;100278.31;;;12.73;52.75
63115;BME280;49208;50.874;6.466;2023-04-25T09:25:37;100283.09;;;12.48;51.90
63115;BME280;49208;50.874;6.466;2023-04-25T09:28:06;100285.47;;;12.15;53.17
63115;BME280;49208;50.874;6.466;2023-04-25T09:30:33;100287.53;;;11.87;56.60
63115;BME280;49208;50.874;6.466;2023-04-25T09:33:06;100282.56;;;11.37;56.21
63115;BME280;49208;50.874;6.466;2023-04-25T09:35:40;100295.44;;;11.04;57.74
63115;BME280;49208;50.874;6.466;2023-04-25T09:38:14;100297.28;;;10.80;58.66
63115;BME280;49208;50.874;6.466;2023-04-25T09:40:44;100296.94;;;10.65;58.55
63115;BME280;49208;50.874;6.466;2023-04-25T09:43:20;100305.34;;;10.55;58.88
63115;BME280;49208;50.874;6.466;2023-04-25T09:45:46;100300.66;;;10.61;59.54
63115;BME280;49208;50.874;6.466;2023-04-25T09:48:21;100306.38;;;10.74;59.50
63115;BME280;49208;50.874;6.466;2023-04-25T09:51:11;100308.84;;;11.02;57.64
63115;BME280;49208;50.874;6.466;2023-04-25T09:53:38;100318.31;;;11.09;56.65
63115;BME280;49208;50.874;6.466;2023-04-25T09:56:06;100312.69;;;11.17;56.17
63115;BME280;49208;50.874;6.466;2023-04-25T09:58:31;100322.38;;;11.18;56.98
63115;BME280;49208;50.874;6.466;2023-04-25T10:01:06;100330.88;;;11.06;57.62
63115;BME280;49208;50.874;6.466;2023-04-25T10:03:34;100340.50;;;10.86;59.37
63115;BME280;49208;50.874;6.466;2023-04-25T10:06:01;100336.16;;;10.60;59.78
63115;BME280;49208;50.874;6.466;2023-04-25T10:08:32;100337.91;;;10.38;60.39
63115;BME280;49208;50.874;6.466;2023-04-25T10:11:02;100339.06;;;10.04;60.98
63115;BME280;49208;50.874;6.466;2023-04-25T10:13:31;100341.00;;;10.00;63.36
63115;BME280;49208;50.874;6.466;2023-04-25T10:15:59;100334.50;;;10.07;61.18
63115;BME280;49208;50.874;6.466;2023-04-25T10:18:26;100334.09;;;10.45;62.48
63115;BME280;49208;50.874;6.466;2023-04-25T10:20:58;100340.09;;;10.97;62.54
63115;BME280;49208;50.874;6.466;2023-04-25T10:23:24;100335.97;;;11.34;61.39
63115;BME280;49208;50.874;6.466;2023-04-25T10:25:51;100326.94;;;11.81;61.00
63115;BME280;49208;50.874;6.466;2023-04-25T10:28:18;100331.63;;;12.37;53.71
63115;BME280;49208;50.874;6.466;2023-04-25T10:31:01;100326.47;;;12.72;53.60
63115;BME280;49208;50.874;6.466;2023-04-25T10:33:38;100322.72;;;13.14;52.91
63115;BME280;49208;50.874;6.466;2023-04-25T10:36:21;100328.13;;;13.12;54.09
63115;BME280;49208;50.874;6.466;2023-04-25T10:38:48;100323.38;;;13.00;55.22
63115;BME280;49208;50.874;6.466;2023-04-25T10:41:18;100321.84;;;12.76;49.71
63115;BME280;49208;50.874;6.466;2023-04-25T10:43:48;100325.06;;;12.44;51.74
63115;BME280;49208;50.874;6.466;2023-04-25T10:46:29;100325.72;;;12.10;52.77
63115;BME280;49208;50.874;6.466;2023-04-25T10:49:02;100330.94;;;11.70;53.77
63115;BME280;49208;50.874;6.466;2023-04-25T10:51:30;100338.25;;;11.43;54.67
63115;BME280;49208;50.874;6.466;2023-04-25T10:54:04;100336.53;;;11.42;57.55
63115;BME280;49208;50.874;6.466;2023-04-25T10:59:15;100342.88;;;11.40;54.97
63115;BME280;49208;50.874;6.466;2023-04-25T11:01:42;100333.38;;;11.55;56.12
63115;BME280;49208;50.874;6.466;2023-04-25T11:04:29;100337.19;;;11.91;57.19
63115;BME280;49208;50.874;6.466;2023-04-25T11:09:28;100334.38;;;12.54;52.30
63115;BME280;49208;50.874;6.466;2023-04-25T11:11:57;100325.81;;;12.48;50.57
63115;BME280;49208;50.874;6.466;2023-04-25T11:14:24;100332.50;;;12.38;52.07
63115;BME280;49208;50.874;6.466;2023-04-25T11:16:56;100334.03;;;12.23;51.00
63115;BME280;49208;50.874;6.466;2023-04-25T11:19:22;100331.91;;;12.10;52.04
63115;BME280;49208;50.874;6.466;2023-04-25T11:21:48;100339.72;;;11.95;51.23
63115;BME280;49208;50.874;6.466;2023-04-25T11:24:13;100338.38;;;11.83;53.04
63115;BME280;49208;50.874;6.466;2023-04-25T11:26:42;100343.63;;;11.64;54.18
63115;BME280;49208;50.874;6.466;2023-04-25T11:29:08;100344.72;;;11.38;54.03
63115;BME280;49208;50.874;6.466;2023-04-25T11:31:33;100345.56;;;11.38;56.74
63115;BME280;49208;50.874;6.466;2023-04-25T11:33:59;100334.66;;;11.44;55.84
63115;BME280;49208;50.874;6.466;2023-04-25T11:36:25;100341.31;;;11.56;55.02
63115;BME280;49208;50.874;6.466;2023-04-25T11:38:52;100341.09;;;11.61;54.06
63115;BME280;49208;50.874;6.466;2023-04-25T11:41:19;100337.34;;;11.44;51.88
63115;BME280;49208;50.874;6.466;2023-04-25T11:43:44;100344.84;;;11.12;51.75
63115;BME280;49208;50.874;6.466;2023-04-25T11:46:11;100332.44;;;11.11;52.98
63115;BME280;49208;50.874;6.466;2023-04-25T11:48:42;100346.44;;;11.39;52.95
63115;BME280;49208;50.874;6.466;2023-04-25T11:51:08;100340.28;;;11.81;54.27
63115;BME280;49208;50.874;6.466;2023-04-25T11:53:34;100338.91;;;12.33;53.70
63115;BME280;49208;50.874;6.466;2023-04-25T11:55:59;100342.44;;;12.92;55.62
63115;BME280;49208;50.874;6.466;2023-04-25T11:58:25;100343.81;;;13.57;51.61
63115;BME280;49208;50.874;6.466;2023-04-25T12:00:51;100342.78;;;13.95;49.83
63115;BME280;49208;50.874;6.466;2023-04-25T12:03:17;100341.50;;;13.85;51.75
63115;BME280;49208;50.874;6.466;2023-04-25T12:05:44;100343.47;;;13.99;46.87
63115;BME280;49208;50.874;6.466;2023-04-25T12:08:14;100344.19;;;13.85;49.64
63115;BME280;49208;50.874;6.466;2023-04-25T12:10:41;100338.28;;;13.79;49.14
63115;BME280;49208;50.874;6.466;2023-04-25T12:13:24;100335.94;;;14.07;50.71
63115;BME280;49208;50.874;6.466;2023-04-25T12:15:50;100344.31;;;14.34;50.39
63115;BME280;49208;50.874;6.466;2023-04-25T12:18:19;100346.00;;;14.20;47.62
63115;BME280;49208;50.874;6.466;2023-04-25T12:20:44;100350.31;;;14.05;47.88
63115;BME280;49208;50.874;6.466;2023-04-25T12:23:10;100348.03;;;13.80;49.57
63115;BME280;49208;50.874;6.466;2023-04-25T12:25:38;100351.97;;;13.72;49.11
63115;BME280;49208;50.874;6.466;2023-04-25T12:28:19;100353.72;;;13.91;48.98
63115;BME280;49208;50.874;6.466;2023-04-25T12:31:11;100348.28;;;13.92;50.12
63115;BME280;49208;50.874;6.466;2023-04-25T12:33:37;100357.97;;;13.95;49.39
63115;BME280;49208;50.874;6.466;2023-04-25T12:36:05;100352.19;;;13.68;46.50
63115;BME280;49208;50.874;6.466;2023-04-25T12:38:38;100360.47;;;13.44;48.49
63115;BME280;49208;50.874;6.466;2023-04-25T12:41:05;100363.22;;;13.05;48.66
63115;BME280;49208;50.874;6.466;2023-04-25T12:43:32;100370.19;;;12.50;49.08
63115;BME280;49208;50.874;6.466;2023-04-25T12:45:57;100367.50;;;12.09;49.30
63115;BME280;49208;50.874;6.466;2023-04-25T12:48:23;100375.00;;;11.57;50.53
63115;BME280;49208;50.874;6.466;2023-04-25T12:50:50;100378.34;;;11.18;51.96
63115;BME280;49208;50.874;6.466;2023-04-25T12:55:42;100388.59;;;10.58;52.18
63115;BME280;49208;50.874;6.466;2023-04-25T12:58:08;100383.03;;;10.41;55.08
63115;BME280;49208;50.874;6.466;2023-04-25T13:00:33;100387.31;;;10.18;54.94
63115;BME280;49208;50.874;6.466;2023-04-25T13:02:59;100389.00;;;10.21;55.76
63115;BME280;49208;50.874;6.466;2023-04-25T13:05:25;100389.81;;;10.23;57.23
63115;BME280;49208;50.874;6.466;2023-04-25T13:07:50;100394.94;;;10.29;56.64
63115;BME280;49208;50.874;6.466;2023-04-25T13:10:16;100394.59;;;10.40;56.19
63115;BME280;49208;50.874;6.466;2023-04-25T13:12:43;100399.53;;;10.50;54.24
63115;BME280;49208;50.874;6.466;2023-04-25T13:15:09;100396.78;;;10.77;53.96
63115;BME280;49208;50.874;6.466;2023-04-25T13:17:36;100393.59;;;11.15;53.50
63115;BME280;49208;50.874;6.466;2023-04-25T13:20:01;100390.16;;;11.57;53.67
63115;BME280;49208;50.874;6.466;2023-04-25T13:22:27;100386.91;;;11.92;53.41
63115;BME280;49208;50.874;6.466;2023-04-25T13:24:52;100389.03;;;12.27;52.88
63115;BME280;49208;50.874;6.466;2023-04-25T13:27:18;100383.25;;;12.57;49.06
63115;BME280;49208;50.874;6.466;2023-04-25T13:29:43;100379.16;;;12.68;49.00
63115;BME280;49208;50.874;6.466;2023-04-25T13:32:09;100378.31;;;12.68;47.78
63115;BME280;49208;50.874;6.466;2023-04-25T13:34:34;100390.09;;;12.43;46.95
63115;BME280;49208;50.874;6.466;2023-04-25T13:37:00;100392.16;;;12.16;46.95
63115;BME280;49208;50.874;6.466;2023-04-25T13:39:25;100392.41;;;11.89;50.16
63115;BME280;49208;50.874;6.466;2023-04-25T13:41:50;100387.91;;;11.90;50.69
63115;BME280;49208;50.874;6.466;2023-04-25T13:44:16;100387.75;;;12.15;51.03
63115;BME280;49208;50.874;6.466;2023-04-25T13:46:41;100390.09;;;12.43;50.32
63115;BME280;49208;50.874;6.466;2023-04-25T13:49:07;100388.03;;;12.69;51.65
63115;BME280;49208;50.874;6.466;2023-04-25T13:51:32;100384.97;;;12.97;52.43
63115;BME280;49208;50.874;6.466;2023-04-25T13:53:57;100393.28;;;12.91;50.76
63115;BME280;49208;50.874;6.466;2023-04-25T13:56:23;100383.16;;;12.79;50.44
63115;BME280;49208;50.874;6.466;2023-04-25T13:58:51;100397.47;;;12.57;50.54
63115;BME280;49208;50.874;6.466;2023-04-25T14:01:19;100400.75;;;12.43;48.59
63115;BME280;49208;50.874;6.466;2023-04-25T14:03:46;100402.94;;;12.13;49.54
63115;BME280;49208;50.874;6.466;2023-04-25T14:06:11;100413.41;;;11.75;49.95
63115;BME280;49208;50.874;6.466;2023-04-25T14:08:38;100417.84;;;11.52;50.85
63115;BME280;49208;50.874;6.466;2023-04-25T14:11:04;100423.94;;;11.10;52.68
63115;BME280;49208;50.874;6.466;2023-04-25T14:13:30;100420.03;;;10.96;54.79
63115;BME280;49208;50.874;6.466;2023-04-25T14:15:56;100417.63;;;10.89;54.61
63115;BME280;49208;50.874;6.466;2023-04-25T14:18:21;100412.63;;;10.80;54.75
63115;BME280;49208;50.874;6.466;2023-04-25T14:20:47;100417.19;;;10.77;55.11
63115;BME280;49208;50.874;6.466;2023-04-25T14:23:13;100420.75;;;10.77;55.06
63115;BME280;49208;50.874;6.466;2023-04-25T14:25:39;100428.84;;;10.74;54.42
63115;BME280;49208;50.874;6.466;2023-04-25T14:28:04;100424.28;;;10.78;54.16
63115;BME280;49208;50.874;6.466;2023-04-25T14:30:30;100427.34;;;10.90;55.02
63115;BME280;49208;50.874;6.466;2023-04-25T14:32:55;100417.88;;;10.83;52.28
63115;BME280;49208;50.874;6.466;2023-04-25T14:35:21;100425.72;;;10.86;53.56
63115;BME280;49208;50.874;6.466;2023-04-25T14:37:46;100432.09;;;10.82;53.53
63115;BME280;49208;50.874;6.466;2023-04-25T14:40:12;100434.69;;;10.84;54.72
63115;BME280;49208;50.874;6.466;2023-04-25T14:42:39;100431.28;;;11.04;53.00
63115;BME280;49208;50.874;6.466;2023-04-25T14:45:05;100430.44;;;11.27;52.59
63115;BME280;49208;50.874;6.466;2023-04-25T14:47:32;100441.81;;;11.30;52.13
63115;BME280;49208;50.874;6.466;2023-04-25T14:49:57;100434.28;;;11.42;51.10
63115;BME280;49208;50.874;6.466;2023-04-25T14:52:23;100434.72;;;11.31;50.05
63115;BME280;49208;50.874;6.466;2023-04-25T14:54:49;100437.84;;;11.19;51.83
63115;BME280;49208;50.874;6.466;2023-04-25T14:57:15;100435.97;;;10.97;53.21
63115;BME280;49208;50.874;6.466;2023-04-25T14:59:40;100437.53;;;10.79;54.22
63115;BME280;49208;50.874;6.466;2023-04-25T15:02:06;100429.91;;;10.68;54.97
63115;BME280;49208;50.874;6.466;2023-04-25T15:04:31;100430.88;;;10.91;54.96
63115;BME280;49208;50.874;6.466;2023-04-25T15:06:57;100425.63;;;11.13;50.90
63115;BME280;49208;50.874;6.466;2023-04-25T15:09:22;100421.25;;;11.34;48.35
63115;BME280;49208;50.874;6.466;2023-04-25T15:11:49;100426.72;;;11.53;50.10
63115;BME280;49208;50.874;6.466;2023-04-25T15:14:14;100428.13;;;11.62;48.48
63115;BME280;49208;50.874;6.466;2023-04-25T15:16:40;100431.50;;;11.67;47.95
63115;BME280;49208;50.874;6.466;2023-04-25T15:19:05;100428.69;;;11.70;44.30
63115;BME280;49208;50.874;6.466;2023-04-25T15:21:31;100427.03;;;11.67;47.16
63115;BME280;49208;50.874;6.466;2023-04-25T15:23:56;100427.09;;;11.66;47.15
63115;BME280;49208;50.874;6.466;2023-04-25T15:26:22;100437.09;;;11.61;50.38
63115;BME280;49208;50.874;6.466;2023-04-25T15:28:47;100432.03;;;11.53;50.51
63115;BME280;49208;50.874;6.466;2023-04-25T15:31:13;100437.28;;;11.56;49.20
63115;BME280;49208;50.874;6.466;2023-04-25T15:33:39;100438.88;;;11.60;49.35
63115;BME280;49208;50.874;6.466;2023-04-25T15:36:04;100433.81;;;11.54;49.87
63115;BME280;49208;50.874;6.466;2023-04-25T15:38:30;100433.13;;;11.71;49.68
63115;BME280;49208;50.874;6.466;2023-04-25T15:40:55;100435.66;;;11.74;49.56
63115;BME280;49208;50.874;6.466;2023-04-25T15:43:22;100426.97;;;11.69;50.69
63115;BME280;49208;50.874;6.466;2023-04-25T15:45:47;100433.47;;;11.62;49.33
63115;BME280;49208;50.874;6.466;2023-04-25T15:48:13;100440.19;;;11.50;49.65
63115;BME280;49208;50.874;6.466;2023-04-25T15:50:38;100434.28;;;11.42;49.72
63115;BME280;49208;50.874;6.466;2023-04-25T15:53:04;100441.09;;;11.27;45.39
63115;BME280;49208;50.874;6.466;2023-04-25T15:55:29;100444.25;;;11.13;47.92
63115;BME280;49208;50.874;6.466;2023-04-25T15:57:55;100448.19;;;11.03;47.56
63115;BME280;49208;50.874;6.466;2023-04-25T16:00:20;100448.59;;;10.92;46.99
63115;BME280;49208;50.874;6.466;2023-04-25T16:02:46;100446.44;;;10.78;47.08
63115;BME280;49208;50.874;6.466;2023-04-25T16:05:12;100452.16;;;10.67;48.84
63115;BME280;49208;50.874;6.466;2023-04-25T16:07:40;100452.63;;;10.54;50.24
63115;BME280;49208;50.874;6.466;2023-04-25T16:10:06;100451.50;;;10.36;50.88
63115;BME280;49208;50.874;6.466;2023-04-25T16:12:32;100454.41;;;10.28;52.11
63115;BME280;49208;50.874;6.466;2023-04-25T16:14:57;100456.25;;;10.26;52.59
63115;BME280;49208;50.874;6.466;2023-04-25T16:17:26;100451.72;;;10.28;52.28
63115;BME280;49208;50.874;6.466;2023-04-25T16:19:53;100451.66;;;10.31;53.92
63115;BME280;49208;50.874;6.466;2023-04-25T16:22:19;100456.91;;;10.32;53.87
63115;BME280;49208;50.874;6.466;2023-04-25T16:24:45;100456.06;;;10.32;52.46
63115;BME280;49208;50.874;6.466;2023-04-25T16:27:10;100459.13;;;10.46;53.35
63115;BME280;49208;50.874;6.466;2023-04-25T16:29:36;100457.69;;;10.61;51.05
63115;BME280;49208;50.874;6.466;2023-04-25T16:32:01;100454.78;;;10.69;53.76
63115;BME280;49208;50.874;6.466;2023-04-25T16:34:27;100449.50;;;10.67;54.31
63115;BME280;49208;50.874;6.466;2023-04-25T16:36:54;100452.22;;;10.66;54.51
63115;BME280;49208;50.874;6.466;2023-04-25T16:39:19;100461.94;;;10.67;54.51
63115;BME280;49208;50.874;6.466;2023-04-25T16:41:46;100456.22;;;10.78;55.91
63115;BME280;49208;50.874;6.466;2023-04-25T16:44:12;100460.56;;;10.80;54.75
63115;BME280;49208;50.874;6.466;2023-04-25T16:46:37;100457.22;;;10.75;53.37
63115;BME280;49208;50.874;6.466;2023-04-25T16:49:03;100461.66;;;10.75;55.04
63115;BME280;49208;50.874;6.466;2023-04-25T16:51:28;100458.50;;;10.63;55.25
63115;BME280;49208;50.874;6.466;2023-04-25T16:53:53;100454.81;;;10.67;54.43
63115;BME280;49208;50.874;6.466;2023-04-25T16:56:20;100450.41;;;10.66;52.30
63115;BME280;49208;50.874;6.466;2023-04-25T16:58:47;100454.28;;;10.58;50.52
63115;BME280;49208;50.874;6.466;2023-04-25T17:01:12;100454.44;;;10.53;50.43
63115;BME280;49208;50.874;6.466;2023-04-25T17:03:40;100453.75;;;10.48;52.07
63115;BME280;49208;50.874;6.466;2023-04-25T17:06:05;100456.53;;;10.43;54.04
63115;BME280;49208;50.874;6.466;2023-04-25T17:08:31;100462.84;;;10.41;53.54
63115;BME280;49208;50.874;6.466;2023-04-25T17:10:56;100460.31;;;10.38;52.99
63115;BME280;49208;50.874;6.466;2023-04-25T17:13:23;100461.38;;;10.32;53.07
63115;BME280;49208;50.874;6.466;2023-04-25T17:15:49;100462.75;;;10.17;53.03
63115;BME280;49208;50.874;6.466;2023-04-25T17:18:15;100471.06;;;10.06;53.55
63115;BME280;49208;50.874;6.466;2023-04-25T17:20:41;100474.88;;;9.98;52.77
63115;BME280;49208;50.874;6.466;2023-04-25T17:23:07;100470.88;;;9.86;53.20
63115;BME280;49208;50.874;6.466;2023-04-25T17:25:32;100472.94;;;9.76;53.18
63115;BME280;49208;50.874;6.466;2023-04-25T17:27:57;100476.81;;;9.66;53.49
63115;BME280;49208;50.874;6.466;2023-04-25T17:30:23;100480.59;;;9.59;54.28
63115;BME280;49208;50.874;6.466;2023-04-25T17:32:48;100482.47;;;9.55;54.82
63115;BME280;49208;50.874;6.466;2023-04-25T17:35:14;100485.31;;;9.49;55.13
63115;BME280;49208;50.874;6.466;2023-04-25T17:37:41;100491.59;;;9.46;55.43
63115;BME280;49208;50.874;6.466;2023-04-25T17:40:08;100496.16;;;9.41;52.51
63115;BME280;49208;50.874;6.466;2023-04-25T17:42:37;100505.25;;;9.34;53.17
63115;BME280;49208;50.874;6.466;2023-04-25T17:45:03;100505.50;;;9.25;54.29
63115;BME280;49208;50.874;6.466;2023-04-25T17:47:28;100517.25;;;9.16;55.10
63115;BME280;49208;50.874;6.466;2023-04-25T17:49:53;100507.84;;;9.04;55.90
63115;BME280;49208;50.874;6.466;2023-04-25T17:52:20;100517.97;;;8.90;56.59
63115;BME280;49208;50.874;6.466;2023-04-25T17:54:46;100516.53;;;8.78;56.61
63115;BME280;49208;50.874;6.466;2023-04-25T17:57:11;100515.84;;;8.72;57.26
63115;BME280;49208;50.874;6.466;2023-04-25T17:59:37;100529.38;;;8.61;58.11
63115;BME280;49208;50.874;6.466;2023-04-25T18:02:02;100520.81;;;8.51;58.34
63115;BME280;49208;50.874;6.466;2023-04-25T18:04:28;100525.44;;;8.43;59.00
63115;BME280;49208;50.874;6.466;2023-04-25T18:06:54;100531.72;;;8.37;59.98
63115;BME280;49208;50.874;6.466;2023-04-25T18:09:20;100525.66;;;8.32;60.06
63115;BME280;49208;50.874;6.466;2023-04-25T18:11:48;100526.66;;;8.28;60.47
63115;BME280;49208;50.874;6.466;2023-04-25T18:14:14;100528.53;;;8.23;60.88
63115;BME280;49208;50.874;6.466;2023-04-25T18:16:42;100527.78;;;8.18;61.49
63115;BME280;49208;50.874;6.466;2023-04-25T18:19:08;100531.44;;;8.14;61.19
63115;BME280;49208;50.874;6.466;2023-04-25T18:21:43;100535.09;;;8.08;61.94
63115;BME280;49208;50.874;6.466;2023-04-25T18:24:10;100537.03;;;8.01;62.74
63115;BME280;49208;50.874;6.466;2023-04-25T18:26:37;100538.97;;;7.93;64.27
63115;BME280;49208;50.874;6.466;2023-04-25T18:29:03;100545.38;;;7.84;65.29
63115;BME280;49208;50.874;6.466;2023-04-25T18:31:28;100541.13;;;7.76;65.48
63115;BME280;49208;50.874;6.466;2023-04-25T18:33:56;100544.00;;;7.66;64.11
63115;BME280;49208;50.874;6.466;2023-04-25T18:36:21;100546.78;;;7.60;64.90
63115;BME280;49208;50.874;6.466;2023-04-25T18:38:47;100544.28;;;7.53;65.43
63115;BME280;49208;50.874;6.466;2023-04-25T18:41:15;100551.50;;;7.46;64.66
63115;BME280;49208;50.874;6.466;2023-04-25T18:43:41;100558.69;;;7.39;65.81
63115;BME280;49208;50.874;6.466;2023-04-25T18:46:08;100566.81;;;7.30;64.63
63115;BME280;49208;50.874;6.466;2023-04-25T18:48:34;100565.22;;;7.21;66.38
63115;BME280;49208;50.874;6.466;2023-04-25T18:50:59;100579.50;;;7.14;66.29
63115;BME280;49208;50.874;6.466;2023-04-25T18:53:24;100570.88;;;7.03;68.24
63115;BME280;49208;50.874;6.466;2023-04-25T18:55:50;100568.47;;;6.91;69.02
63115;BME280;49208;50.874;6.466;2023-04-25T18:58:15;100581.06;;;6.76;70.61
63115;BME280;49208;50.874;6.466;2023-04-25T19:00:41;100582.22;;;6.61;71.46